sensor_id;sensor_type;location;lat;lon;timestamp;P1;durP1;ratioP1;P2;durP2;ratioP2
30299;SDS011;17110;52.602;12.998;2023-11-21T00:01:47;6.00;;;4.90;;
30299;SDS011;17110;52.602;12.998;2023-11-21T00:06:48;8.65;;;5.78;;
30299;SDS011;17110;52.602;12.998;2023-11-21T00:11:51;6.07;;;5.47;;
30299;SDS011;17110;52.602;12.998;2023-11-21T00:16:52;7.60;;;4.95;;
30299;SDS011;17110;52.602;12.998;2023-11-21T00:21:52;7.70;;;5.93;;
30299;SDS011;17110;52.602;12.998;2023-11-21T00:26:54;10.23;;;6.13;;
30299;SDS011;17110;52.602;12.998;2023-11-21T00:31:55;6.05;;;4.90;;
30299;SDS011;17110;52.602;12.998;2023-11-21T00:36:56;6.28;;;4.80;;
30299;SDS011;17110;52.602;12.998;2023-11-21T00:41:58;7.32;;;5.18;;
30299;SDS011;17110;52.602;12.998;2023-11-21T00:46:59;13.57;;;6.63;;
30299;SDS011;17110;52.602;12.998;2023-11-21T00:52:00;7.20;;;5.45;;
30299;SDS011;17110;52.602;12.998;2023-11-21T00:57:02;8.52;;;5.93;;
30299;SDS011;17110;52.602;12.998;2023-11-21T01:02:03;7.50;;;5.30;;
30299;SDS011;17110;52.602;12.998;2023-11-21T01:07:05;4.93;;;4.40;;
30299;SDS011;17110;52.602;12.998;2023-11-21T01:12:07;11.02;;;5.63;;
30299;SDS011;17110;52.602;12.998;2023-11-21T01:17:08;7.25;;;5.00;;
30299;SDS011;17110;52.602;12.998;2023-11-21T01:22:09;10.32;;;5.70;;
30299;SDS011;17110;52.602;12.998;2023-11-21T01:27:11;5.25;;;4.70;;
30299;SDS011;17110;52.602;12.998;2023-11-21T01:32:12;7.07;;;5.43;;
30299;SDS011;17110;52.602;12.998;2023-11-21T01:37:13;8.40;;;5.65;;
30299;SDS011;17110;52.602;12.998;2023-11-21T01:42:15;6.55;;;5.10;;
30299;SDS011;17110;52.602;12.998;2023-11-21T01:47:15;8.00;;;4.90;;
30299;SDS011;17110;52.602;12.998;2023-11-21T01:52:17;9.43;;;6.43;;
30299;SDS011;17110;52.602;12.998;2023-11-21T01:57:20;11.25;;;6.13;;
30299;SDS011;17110;52.602;12.998;2023-11-21T02:02:21;8.30;;;6.78;;
30299;SDS011;17110;52.602;12.998;2023-11-21T02:07:21;13.63;;;8.88;;
30299;SDS011;17110;52.602;12.998;2023-11-21T02:12:24;7.72;;;5.90;;
30299;SDS011;17110;52.602;12.998;2023-11-21T02:17:24;8.50;;;5.57;;
30299;SDS011;17110;52.602;12.998;2023-11-21T02:22:26;7.97;;;5.35;;
30299;SDS011;17110;52.602;12.998;2023-11-21T02:27:31;8.55;;;6.15;;
30299;SDS011;17110;52.602;12.998;2023-11-21T02:32:31;8.43;;;6.13;;
30299;SDS011;17110;52.602;12.998;2023-11-21T02:37:32;8.13;;;5.60;;
30299;SDS011;17110;52.602;12.998;2023-11-21T02:42:34;4.88;;;4.30;;
30299;SDS011;17110;52.602;12.998;2023-11-21T02:47:35;6.97;;;6.28;;
30299;SDS011;17110;52.602;12.998;2023-11-21T02:52:36;7.07;;;5.88;;
30299;SDS011;17110;52.602;12.998;2023-11-21T02:57:38;8.35;;;5.75;;
30299;SDS011;17110;52.602;12.998;2023-11-21T03:02:38;8.10;;;6.05;;
30299;SDS011;17110;52.602;12.998;2023-11-21T03:07:39;10.77;;;6.15;;
30299;SDS011;17110;52.602;12.998;2023-11-21T03:12:41;10.80;;;6.40;;
30299;SDS011;17110;52.602;12.998;2023-11-21T03:17:43;10.20;;;5.78;;
30299;SDS011;17110;52.602;12.998;2023-11-21T03:22:44;8.65;;;5.95;;
30299;SDS011;17110;52.602;12.998;2023-11-21T03:27:46;9.93;;;6.22;;
30299;SDS011;17110;52.602;12.998;2023-11-21T03:32:47;11.32;;;6.88;;
30299;SDS011;17110;52.602;12.998;2023-11-21T03:37:48;12.23;;;6.82;;
30299;SDS011;17110;52.602;12.998;2023-11-21T03:42:51;10.00;;;7.20;;
30299;SDS011;17110;52.602;12.998;2023-11-21T03:47:54;7.25;;;5.78;;
30299;SDS011;17110;52.602;12.998;2023-11-21T03:52:55;8.65;;;6.97;;
30299;SDS011;17110;52.602;12.998;2023-11-21T03:57:57;13.27;;;8.35;;
30299;SDS011;17110;52.602;12.998;2023-11-21T04:02:58;13.48;;;7.88;;
30299;SDS011;17110;52.602;12.998;2023-11-21T04:07:59;10.30;;;7.47;;
30299;SDS011;17110;52.602;12.998;2023-11-21T04:13:01;7.40;;;6.28;;
30299;SDS011;17110;52.602;12.998;2023-11-21T04:18:02;8.60;;;6.65;;
30299;SDS011;17110;52.602;12.998;2023-11-21T04:23:03;10.70;;;7.10;;
30299;SDS011;17110;52.602;12.998;2023-11-21T04:28:05;8.88;;;7.40;;
30299;SDS011;17110;52.602;12.998;2023-11-21T04:33:05;10.30;;;7.10;;
30299;SDS011;17110;52.602;12.998;2023-11-21T04:38:06;9.82;;;6.60;;
30299;SDS011;17110;52.602;12.998;2023-11-21T04:43:08;18.05;;;9.25;;
30299;SDS011;17110;52.602;12.998;2023-11-21T04:48:09;14.18;;;8.93;;
30299;SDS011;17110;52.602;12.998;2023-11-21T04:53:10;9.93;;;7.15;;
30299;SDS011;17110;52.602;12.998;2023-11-21T04:58:12;9.70;;;6.97;;
30299;SDS011;17110;52.602;12.998;2023-11-21T05:03:13;8.32;;;6.50;;
30299;SDS011;17110;52.602;12.998;2023-11-21T05:08:14;11.63;;;7.88;;
30299;SDS011;17110;52.602;12.998;2023-11-21T05:13:16;7.90;;;5.88;;
30299;SDS011;17110;52.602;12.998;2023-11-21T05:18:16;8.20;;;5.82;;
30299;SDS011;17110;52.602;12.998;2023-11-21T05:23:17;9.60;;;6.63;;
30299;SDS011;17110;52.602;12.998;2023-11-21T05:28:19;9.55;;;7.15;;
30299;SDS011;17110;52.602;12.998;2023-11-21T05:33:20;12.80;;;6.63;;
30299;SDS011;17110;52.602;12.998;2023-11-21T05:38:21;9.23;;;6.80;;
30299;SDS011;17110;52.602;12.998;2023-11-21T05:43:23;10.60;;;6.80;;
30299;SDS011;17110;52.602;12.998;2023-11-21T05:48:23;8.43;;;6.75;;
30299;SDS011;17110;52.602;12.998;2023-11-21T05:53:24;7.55;;;5.82;;
30299;SDS011;17110;52.602;12.998;2023-11-21T05:58:26;11.00;;;7.22;;
30299;SDS011;17110;52.602;12.998;2023-11-21T06:03:27;9.27;;;5.35;;
30299;SDS011;17110;52.602;12.998;2023-11-21T06:08:28;8.95;;;6.88;;
30299;SDS011;17110;52.602;12.998;2023-11-21T06:13:30;6.03;;;5.07;;
30299;SDS011;17110;52.602;12.998;2023-11-21T06:18:30;8.30;;;6.68;;
30299;SDS011;17110;52.602;12.998;2023-11-21T06:23:31;7.35;;;5.40;;
30299;SDS011;17110;52.602;12.998;2023-11-21T06:28:33;6.82;;;5.35;;
30299;SDS011;17110;52.602;12.998;2023-11-21T06:33:34;11.93;;;5.65;;
30299;SDS011;17110;52.602;12.998;2023-11-21T06:38:35;7.75;;;6.28;;
30299;SDS011;17110;52.602;12.998;2023-11-21T06:43:37;7.78;;;6.03;;
30299;SDS011;17110;52.602;12.998;2023-11-21T06:48:37;10.48;;;7.03;;
30299;SDS011;17110;52.602;12.998;2023-11-21T06:53:38;9.02;;;5.35;;
30299;SDS011;17110;52.602;12.998;2023-11-21T06:58:40;10.95;;;5.63;;
30299;SDS011;17110;52.602;12.998;2023-11-21T07:03:41;9.00;;;5.18;;
30299;SDS011;17110;52.602;12.998;2023-11-21T07:08:41;6.47;;;5.13;;
30299;SDS011;17110;52.602;12.998;2023-11-21T07:13:44;7.20;;;4.25;;
30299;SDS011;17110;52.602;12.998;2023-11-21T07:18:44;6.28;;;4.65;;
30299;SDS011;17110;52.602;12.998;2023-11-21T07:23:45;5.25;;;4.65;;
30299;SDS011;17110;52.602;12.998;2023-11-21T07:28:47;5.50;;;4.53;;
30299;SDS011;17110;52.602;12.998;2023-11-21T07:33:48;9.45;;;4.28;;
30299;SDS011;17110;52.602;12.998;2023-11-21T07:38:49;5.88;;;4.70;;
30299;SDS011;17110;52.602;12.998;2023-11-21T07:43:51;6.57;;;4.72;;
30299;SDS011;17110;52.602;12.998;2023-11-21T07:48:52;6.45;;;4.72;;
30299;SDS011;17110;52.602;12.998;2023-11-21T07:53:53;4.35;;;3.92;;
30299;SDS011;17110;52.602;12.998;2023-11-21T07:58:55;5.28;;;4.07;;
30299;SDS011;17110;52.602;12.998;2023-11-21T08:03:55;6.22;;;4.63;;
30299;SDS011;17110;52.602;12.998;2023-11-21T08:08:56;6.68;;;4.78;;
30299;SDS011;17110;52.602;12.998;2023-11-21T08:13:58;7.80;;;4.43;;
30299;SDS011;17110;52.602;12.998;2023-11-21T08:18:59;5.32;;;3.50;;
30299;SDS011;17110;52.602;12.998;2023-11-21T08:24:00;7.70;;;4.05;;
30299;SDS011;17110;52.602;12.998;2023-11-21T08:29:02;5.28;;;4.03;;
30299;SDS011;17110;52.602;12.998;2023-11-21T08:34:03;4.93;;;3.92;;
30299;SDS011;17110;52.602;12.998;2023-11-21T08:39:03;5.72;;;3.80;;
30299;SDS011;17110;52.602;12.998;2023-11-21T08:44:06;6.15;;;3.50;;
30299;SDS011;17110;52.602;12.998;2023-11-21T08:49:06;8.38;;;3.08;;
30299;SDS011;17110;52.602;12.998;2023-11-21T08:54:07;5.13;;;2.75;;
30299;SDS011;17110;52.602;12.998;2023-11-21T08:59:09;3.15;;;2.95;;
30299;SDS011;17110;52.602;12.998;2023-11-21T09:04:10;3.42;;;2.97;;
30299;SDS011;17110;52.602;12.998;2023-11-21T09:09:11;3.75;;;2.60;;
30299;SDS011;17110;52.602;12.998;2023-11-21T09:14:13;3.95;;;3.05;;
30299;SDS011;17110;52.602;12.998;2023-11-21T09:19:13;6.32;;;3.47;;
30299;SDS011;17110;52.602;12.998;2023-11-21T09:24:14;3.03;;;2.65;;
30299;SDS011;17110;52.602;12.998;2023-11-21T09:29:16;7.30;;;2.67;;
30299;SDS011;17110;52.602;12.998;2023-11-21T09:34:17;5.65;;;3.90;;
30299;SDS011;17110;52.602;12.998;2023-11-21T09:39:18;10.20;;;3.25;;
30299;SDS011;17110;52.602;12.998;2023-11-21T09:44:22;3.92;;;2.88;;
30299;SDS011;17110;52.602;12.998;2023-11-21T09:49:31;4.18;;;2.63;;
30299;SDS011;17110;52.602;12.998;2023-11-21T09:54:34;2.50;;;2.20;;
30299;SDS011;17110;52.602;12.998;2023-11-21T09:59:37;2.42;;;2.22;;
30299;SDS011;17110;52.602;12.998;2023-11-21T10:04:38;3.53;;;2.38;;
30299;SDS011;17110;52.602;12.998;2023-11-21T10:09:39;2.30;;;2.10;;
30299;SDS011;17110;52.602;12.998;2023-11-21T10:14:42;3.13;;;2.83;;
30299;SDS011;17110;52.602;12.998;2023-11-21T10:19:43;3.72;;;2.75;;
30299;SDS011;17110;52.602;12.998;2023-11-21T10:24:46;2.50;;;2.30;;
30299;SDS011;17110;52.602;12.998;2023-11-21T10:29:48;3.33;;;2.35;;
30299;SDS011;17110;52.602;12.998;2023-11-21T10:34:58;2.83;;;2.38;;
30299;SDS011;17110;52.602;12.998;2023-11-21T10:39:59;4.30;;;3.28;;
30299;SDS011;17110;52.602;12.998;2023-11-21T10:45:01;3.28;;;2.97;;
30299;SDS011;17110;52.602;12.998;2023-11-21T10:50:05;3.45;;;3.15;;
30299;SDS011;17110;52.602;12.998;2023-11-21T10:55:15;4.95;;;3.40;;
30299;SDS011;17110;52.602;12.998;2023-11-21T11:05:20;6.00;;;4.45;;
30299;SDS011;17110;52.602;12.998;2023-11-21T11:10:21;8.95;;;4.97;;
30299;SDS011;17110;52.602;12.998;2023-11-21T11:15:24;5.25;;;3.95;;
30299;SDS011;17110;52.602;12.998;2023-11-21T11:20:26;5.50;;;4.22;;
30299;SDS011;17110;52.602;12.998;2023-11-21T11:25:44;5.93;;;3.72;;
30299;SDS011;17110;52.602;12.998;2023-11-21T11:31:02;4.78;;;3.97;;
30299;SDS011;17110;52.602;12.998;2023-11-21T11:36:10;5.28;;;4.15;;
30299;SDS011;17110;52.602;12.998;2023-11-21T11:41:24;5.22;;;4.35;;
30299;SDS011;17110;52.602;12.998;2023-11-21T11:51:43;9.32;;;5.75;;
30299;SDS011;17110;52.602;12.998;2023-11-21T11:56:43;8.30;;;4.88;;
30299;SDS011;17110;52.602;12.998;2023-11-21T12:01:46;17.38;;;7.25;;
30299;SDS011;17110;52.602;12.998;2023-11-21T12:06:50;7.78;;;5.80;;
30299;SDS011;17110;52.602;12.998;2023-11-21T12:11:52;7.13;;;5.65;;
30299;SDS011;17110;52.602;12.998;2023-11-21T12:16:55;7.13;;;4.85;;
30299;SDS011;17110;52.602;12.998;2023-11-21T12:21:56;9.35;;;4.57;;
30299;SDS011;17110;52.602;12.998;2023-11-21T12:26:57;7.85;;;4.28;;
30299;SDS011;17110;52.602;12.998;2023-11-21T12:31:59;6.13;;;4.75;;
30299;SDS011;17110;52.602;12.998;2023-11-21T12:37:00;6.68;;;4.57;;
30299;SDS011;17110;52.602;12.998;2023-11-21T12:42:01;4.22;;;3.83;;
30299;SDS011;17110;52.602;12.998;2023-11-21T12:47:03;5.50;;;4.45;;
30299;SDS011;17110;52.602;12.998;2023-11-21T12:52:04;4.07;;;2.78;;
30299;SDS011;17110;52.602;12.998;2023-11-21T12:57:06;4.63;;;3.75;;
30299;SDS011;17110;52.602;12.998;2023-11-21T13:02:08;4.10;;;3.70;;
30299;SDS011;17110;52.602;12.998;2023-11-21T13:07:09;9.85;;;4.70;;
30299;SDS011;17110;52.602;12.998;2023-11-21T13:12:09;6.28;;;4.25;;
30299;SDS011;17110;52.602;12.998;2023-11-21T13:17:11;7.72;;;4.32;;
30299;SDS011;17110;52.602;12.998;2023-11-21T13:22:12;4.25;;;3.67;;
30299;SDS011;17110;52.602;12.998;2023-11-21T13:27:13;4.75;;;4.32;;
30299;SDS011;17110;52.602;12.998;2023-11-21T13:32:15;7.95;;;4.65;;
30299;SDS011;17110;52.602;12.998;2023-11-21T13:37:16;6.68;;;4.32;;
30299;SDS011;17110;52.602;12.998;2023-11-21T13:42:16;5.65;;;3.97;;
30299;SDS011;17110;52.602;12.998;2023-11-21T13:47:18;6.55;;;4.57;;
30299;SDS011;17110;52.602;12.998;2023-11-21T13:52:19;5.10;;;4.40;;
30299;SDS011;17110;52.602;12.998;2023-11-21T13:57:20;3.92;;;3.58;;
30299;SDS011;17110;52.602;12.998;2023-11-21T14:02:22;4.75;;;3.70;;
30299;SDS011;17110;52.602;12.998;2023-11-21T14:07:23;5.18;;;3.97;;
30299;SDS011;17110;52.602;12.998;2023-11-21T14:12:24;4.85;;;4.00;;
30299;SDS011;17110;52.602;12.998;2023-11-21T14:17:26;7.47;;;5.68;;
30299;SDS011;17110;52.602;12.998;2023-11-21T14:22:26;10.45;;;5.53;;
30299;SDS011;17110;52.602;12.998;2023-11-21T14:27:27;8.65;;;6.95;;
30299;SDS011;17110;52.602;12.998;2023-11-21T14:32:29;7.38;;;5.63;;
30299;SDS011;17110;52.602;12.998;2023-11-21T14:37:30;9.45;;;5.63;;
30299;SDS011;17110;52.602;12.998;2023-11-21T14:42:31;7.38;;;6.40;;
30299;SDS011;17110;52.602;12.998;2023-11-21T14:47:33;9.88;;;6.78;;
30299;SDS011;17110;52.602;12.998;2023-11-21T14:52:33;8.30;;;6.35;;
30299;SDS011;17110;52.602;12.998;2023-11-21T14:57:34;10.38;;;6.68;;
30299;SDS011;17110;52.602;12.998;2023-11-21T15:02:36;9.70;;;6.85;;
30299;SDS011;17110;52.602;12.998;2023-11-21T15:07:39;9.43;;;7.07;;
30299;SDS011;17110;52.602;12.998;2023-11-21T15:12:39;11.70;;;6.95;;
30299;SDS011;17110;52.602;12.998;2023-11-21T15:17:42;7.85;;;5.97;;
30299;SDS011;17110;52.602;12.998;2023-11-21T15:22:42;9.40;;;7.55;;
30299;SDS011;17110;52.602;12.998;2023-11-21T15:27:43;12.23;;;8.15;;
30299;SDS011;17110;52.602;12.998;2023-11-21T15:32:45;9.23;;;5.85;;
30299;SDS011;17110;52.602;12.998;2023-11-21T15:37:46;10.90;;;7.90;;
30299;SDS011;17110;52.602;12.998;2023-11-21T15:42:46;10.18;;;7.18;;
30299;SDS011;17110;52.602;12.998;2023-11-21T15:47:48;11.38;;;7.15;;
30299;SDS011;17110;52.602;12.998;2023-11-21T15:52:49;10.43;;;8.15;;
30299;SDS011;17110;52.602;12.998;2023-11-21T15:57:50;17.55;;;8.65;;
30299;SDS011;17110;52.602;12.998;2023-11-21T16:02:52;11.82;;;7.97;;
30299;SDS011;17110;52.602;12.998;2023-11-21T16:07:53;10.98;;;8.18;;
30299;SDS011;17110;52.602;12.998;2023-11-21T16:12:53;18.23;;;8.15;;
30299;SDS011;17110;52.602;12.998;2023-11-21T16:17:55;8.50;;;6.60;;
30299;SDS011;17110;52.602;12.998;2023-11-21T16:22:56;45.92;;;8.52;;
30299;SDS011;17110;52.602;12.998;2023-11-21T16:27:57;11.68;;;7.63;;
30299;SDS011;17110;52.602;12.998;2023-11-21T16:32:59;12.35;;;6.60;;
30299;SDS011;17110;52.602;12.998;2023-11-21T16:38:00;9.10;;;6.45;;
30299;SDS011;17110;52.602;12.998;2023-11-21T16:43:00;14.82;;;7.90;;
30299;SDS011;17110;52.602;12.998;2023-11-21T16:48:03;12.52;;;7.57;;
30299;SDS011;17110;52.602;12.998;2023-11-21T16:53:04;10.05;;;6.50;;
30299;SDS011;17110;52.602;12.998;2023-11-21T16:58:04;9.77;;;6.63;;
30299;SDS011;17110;52.602;12.998;2023-11-21T17:03:07;12.52;;;7.35;;
30299;SDS011;17110;52.602;12.998;2023-11-21T17:08:07;11.00;;;6.07;;
30299;SDS011;17110;52.602;12.998;2023-11-21T17:13:08;11.68;;;7.20;;
30299;SDS011;17110;52.602;12.998;2023-11-21T17:18:10;9.07;;;6.88;;
30299;SDS011;17110;52.602;12.998;2023-11-21T17:23:11;13.15;;;8.07;;
30299;SDS011;17110;52.602;12.998;2023-11-21T17:28:11;8.70;;;7.18;;
30299;SDS011;17110;52.602;12.998;2023-11-21T17:33:14;10.63;;;7.40;;
30299;SDS011;17110;52.602;12.998;2023-11-21T17:38:14;15.23;;;8.63;;
30299;SDS011;17110;52.602;12.998;2023-11-21T17:43:15;7.15;;;6.18;;
30299;SDS011;17110;52.602;12.998;2023-11-21T17:48:17;12.15;;;7.53;;
30299;SDS011;17110;52.602;12.998;2023-11-21T17:53:18;12.95;;;8.07;;
30299;SDS011;17110;52.602;12.998;2023-11-21T17:58:19;8.27;;;5.97;;
30299;SDS011;17110;52.602;12.998;2023-11-21T18:03:21;20.25;;;6.93;;
30299;SDS011;17110;52.602;12.998;2023-11-21T18:08:22;8.93;;;6.07;;
30299;SDS011;17110;52.602;12.998;2023-11-21T18:13:23;6.25;;;5.57;;
30299;SDS011;17110;52.602;12.998;2023-11-21T18:18:25;14.68;;;6.45;;
30299;SDS011;17110;52.602;12.998;2023-11-21T18:23:26;9.98;;;6.18;;
30299;SDS011;17110;52.602;12.998;2023-11-21T18:28:27;11.98;;;6.20;;
30299;SDS011;17110;52.602;12.998;2023-11-21T18:33:29;7.00;;;5.28;;
30299;SDS011;17110;52.602;12.998;2023-11-21T18:38:30;9.52;;;6.07;;
30299;SDS011;17110;52.602;12.998;2023-11-21T18:43:30;9.35;;;4.68;;
30299;SDS011;17110;52.602;12.998;2023-11-21T18:48:34;4.60;;;4.00;;
30299;SDS011;17110;52.602;12.998;2023-11-21T18:53:34;7.82;;;6.00;;
30299;SDS011;17110;52.602;12.998;2023-11-21T18:58:35;6.22;;;5.20;;
30299;SDS011;17110;52.602;12.998;2023-11-21T19:03:37;6.93;;;5.45;;
30299;SDS011;17110;52.602;12.998;2023-11-21T19:08:40;5.75;;;4.53;;
30299;SDS011;17110;52.602;12.998;2023-11-21T19:13:41;6.72;;;5.28;;
30299;SDS011;17110;52.602;12.998;2023-11-21T19:18:43;10.05;;;5.70;;
30299;SDS011;17110;52.602;12.998;2023-11-21T19:23:44;7.53;;;4.70;;
30299;SDS011;17110;52.602;12.998;2023-11-21T19:28:45;9.23;;;5.60;;
30299;SDS011;17110;52.602;12.998;2023-11-21T19:33:47;7.43;;;4.18;;
30299;SDS011;17110;52.602;12.998;2023-11-21T19:38:48;6.85;;;4.40;;
30299;SDS011;17110;52.602;12.998;2023-11-21T19:43:49;4.50;;;3.83;;
30299;SDS011;17110;52.602;12.998;2023-11-21T19:48:51;5.93;;;4.20;;
30299;SDS011;17110;52.602;12.998;2023-11-21T19:53:52;6.15;;;3.90;;
30299;SDS011;17110;52.602;12.998;2023-11-21T19:58:53;7.18;;;4.60;;
30299;SDS011;17110;52.602;12.998;2023-11-21T20:03:55;4.10;;;3.00;;
30299;SDS011;17110;52.602;12.998;2023-11-21T20:08:56;4.07;;;3.42;;
30299;SDS011;17110;52.602;12.998;2023-11-21T20:13:57;4.53;;;3.67;;
30299;SDS011;17110;52.602;12.998;2023-11-21T20:18:59;4.15;;;3.08;;
30299;SDS011;17110;52.602;12.998;2023-11-21T20:24:00;4.80;;;3.88;;
30299;SDS011;17110;52.602;12.998;2023-11-21T20:29:00;4.30;;;3.70;;
30299;SDS011;17110;52.602;12.998;2023-11-21T20:34:02;2.92;;;2.72;;
30299;SDS011;17110;52.602;12.998;2023-11-21T20:39:03;4.75;;;3.67;;
30299;SDS011;17110;52.602;12.998;2023-11-21T20:44:04;4.43;;;2.88;;
30299;SDS011;17110;52.602;12.998;2023-11-21T20:49:08;3.10;;;2.45;;
30299;SDS011;17110;52.602;12.998;2023-11-21T20:54:09;3.50;;;2.92;;
30299;SDS011;17110;52.602;12.998;2023-11-21T20:59:10;3.60;;;2.50;;
30299;SDS011;17110;52.602;12.998;2023-11-21T21:04:12;3.70;;;2.65;;
30299;SDS011;17110;52.602;12.998;2023-11-21T21:09:12;4.88;;;2.92;;
30299;SDS011;17110;52.602;12.998;2023-11-21T21:14:13;2.65;;;2.42;;
30299;SDS011;17110;52.602;12.998;2023-11-21T21:19:15;5.75;;;2.90;;
30299;SDS011;17110;52.602;12.998;2023-11-21T21:24:16;2.75;;;2.38;;
30299;SDS011;17110;52.602;12.998;2023-11-21T21:29:17;2.20;;;2.00;;
30299;SDS011;17110;52.602;12.998;2023-11-21T21:34:19;5.75;;;3.28;;
30299;SDS011;17110;52.602;12.998;2023-11-21T21:39:20;2.67;;;2.35;;
30299;SDS011;17110;52.602;12.998;2023-11-21T21:44:20;5.13;;;3.13;;
30299;SDS011;17110;52.602;12.998;2023-11-21T21:49:22;3.83;;;2.92;;
30299;SDS011;17110;52.602;12.998;2023-11-21T21:54:23;2.45;;;2.25;;
30299;SDS011;17110;52.602;12.998;2023-11-21T21:59:24;4.40;;;2.72;;
30299;SDS011;17110;52.602;12.998;2023-11-21T22:04:26;6.88;;;3.97;;
30299;SDS011;17110;52.602;12.998;2023-11-21T22:09:27;3.35;;;3.05;;
30299;SDS011;17110;52.602;12.998;2023-11-21T22:14:27;6.03;;;3.03;;
30299;SDS011;17110;52.602;12.998;2023-11-21T22:19:29;5.35;;;3.63;;
30299;SDS011;17110;52.602;12.998;2023-11-21T22:24:30;3.08;;;2.47;;
30299;SDS011;17110;52.602;12.998;2023-11-21T22:29:31;3.25;;;2.63;;
30299;SDS011;17110;52.602;12.998;2023-11-21T22:34:33;3.25;;;2.95;;
30299;SDS011;17110;52.602;12.998;2023-11-21T22:39:34;5.15;;;3.00;;
30299;SDS011;17110;52.602;12.998;2023-11-21T22:44:34;5.57;;;3.90;;
30299;SDS011;17110;52.602;12.998;2023-11-21T22:49:37;5.15;;;3.30;;
30299;SDS011;17110;52.602;12.998;2023-11-21T22:54:40;5.90;;;2.97;;
30299;SDS011;17110;52.602;12.998;2023-11-21T22:59:41;3.65;;;2.83;;
30299;SDS011;17110;52.602;12.998;2023-11-21T23:04:43;4.80;;;2.97;;
30299;SDS011;17110;52.602;12.998;2023-11-21T23:09:43;2.58;;;2.28;;
30299;SDS011;17110;52.602;12.998;2023-11-21T23:14:44;6.75;;;2.97;;
30299;SDS011;17110;52.602;12.998;2023-11-21T23:19:46;5.40;;;2.95;;
30299;SDS011;17110;52.602;12.998;2023-11-21T23:24:47;3.45;;;3.15;;
30299;SDS011;17110;52.602;12.998;2023-11-21T23:29:48;3.53;;;3.22;;
30299;SDS011;17110;52.602;12.998;2023-11-21T23:34:50;4.50;;;2.80;;
30299;SDS011;17110;52.602;12.998;2023-11-21T23:39:51;3.90;;;2.92;;
30299;SDS011;17110;52.602;12.998;2023-11-21T23:44:51;4.18;;;3.08;;
30299;SDS011;17110;52.602;12.998;2023-11-21T23:49:53;2.83;;;2.50;;
30299;SDS011;17110;52.602;12.998;2023-11-21T23:54:54;5.53;;;3.80;;
30299;SDS011;17110;52.602;12.998;2023-11-21T23:59:55;5.57;;;2.70;;
